Terminal Aerodrome Forecast
Issued by NWS

Current Version | Previous Version | Text Only | Print | Product List | Glossary On
Versions: 1 2 3 4 5 6 7 8 9 10 11 12 13 14 15 16 17 18 19 20 21 22 23 24 25 26
456
FTUS46 KLOX 010525
TAFOXR
TAF
KOXR 010525Z 0106/0206 27009KT P6SM OVC006
     FM011100 VRB03KT 3SM BR OVC004
     FM011600 VRB03KT 5SM BR OVC006
     FM011800 24007KT 6SM BR OVC008
     FM012100 25008KT P6SM BKN010
     FM020300 VRB03KT P6SM OVC007=

USA.gov is the U.S. government's official web portal to all federal, state and local government web resources and services.